sensor_id;sensor_type;location;lat;lon;timestamp;pressure;altitude;pressure_sealevel;temperature;humidity
37634;BME280;32048;49.902;22.508;2022-10-15T00:01:19;98843.91;;;9.00;100.00
37634;BME280;32048;49.902;22.508;2022-10-15T00:03:46;98846.38;;;9.03;100.00
37634;BME280;32048;49.902;22.508;2022-10-15T00:06:16;98844.59;;;9.03;100.00
37634;BME280;32048;49.902;22.508;2022-10-15T00:08:44;98845.28;;;9.08;100.00
37634;BME280;32048;49.902;22.508;2022-10-15T00:11:22;98837.38;;;9.08;100.00
37634;BME280;32048;49.902;22.508;2022-10-15T00:13:56;98829.47;;;9.08;100.00
37634;BME280;32048;49.902;22.508;2022-10-15T00:16:26;98832.00;;;9.10;100.00
37634;BME280;32048;49.902;22.508;2022-10-15T00:18:58;98844.34;;;9.09;100.00
37634;BME280;32048;49.902;22.508;2022-10-15T00:21:26;98838.06;;;9.12;100.00
37634;BME280;32048;49.902;22.508;2022-10-15T00:23:53;98841.44;;;9.15;100.00
37634;BME280;32048;49.902;22.508;2022-10-15T00:26:22;98832.47;;;9.20;100.00
37634;BME280;32048;49.902;22.508;2022-10-15T00:28:51;98832.31;;;9.23;100.00
37634;BME280;32048;49.902;22.508;2022-10-15T00:31:19;98818.03;;;9.28;100.00
37634;BME280;32048;49.902;22.508;2022-10-15T00:33:50;98825.78;;;9.31;100.00
37634;BME280;32048;49.902;22.508;2022-10-15T00:36:19;98817.66;;;9.36;100.00
37634;BME280;32048;49.902;22.508;2022-10-15T00:38:47;98831.63;;;9.38;100.00
37634;BME280;32048;49.902;22.508;2022-10-15T00:41:21;98825.31;;;9.42;100.00
37634;BME280;32048;49.902;22.508;2022-10-15T00:43:54;98830.34;;;9.47;100.00
37634;BME280;32048;49.902;22.508;2022-10-15T00:46:34;98830.34;;;9.47;100.00
37634;BME280;32048;49.902;22.508;2022-10-15T00:51:54;98833.91;;;9.46;100.00
37634;BME280;32048;49.902;22.508;2022-10-15T00:54:24;98833.06;;;9.45;100.00
37634;BME280;32048;49.902;22.508;2022-10-15T00:56:53;98829.56;;;9.45;100.00
37634;BME280;32048;49.902;22.508;2022-10-15T00:59:23;98826.00;;;9.46;100.00
37634;BME280;32048;49.902;22.508;2022-10-15T01:01:52;98815.38;;;9.47;100.00
37634;BME280;32048;49.902;22.508;2022-10-15T01:04:21;98826.66;;;9.51;100.00
37634;BME280;32048;49.902;22.508;2022-10-15T01:06:49;98822.19;;;9.53;100.00
37634;BME280;32048;49.902;22.508;2022-10-15T01:09:15;98821.03;;;9.58;100.00
37634;BME280;32048;49.902;22.508;2022-10-15T01:11:52;98814.84;;;9.60;100.00
37634;BME280;32048;49.902;22.508;2022-10-15T01:30:44;98825.06;;;9.66;100.00
37634;BME280;32048;49.902;22.508;2022-10-15T01:33:34;98820.25;;;9.75;100.00
37634;BME280;32048;49.902;22.508;2022-10-15T01:36:21;98823.34;;;9.84;100.00
37634;BME280;32048;49.902;22.508;2022-10-15T01:38:57;98824.00;;;9.89;100.00
37634;BME280;32048;49.902;22.508;2022-10-15T01:41:43;98827.19;;;9.95;100.00
37634;BME280;32048;49.902;22.508;2022-10-15T01:44:23;98828.72;;;9.99;100.00
37634;BME280;32048;49.902;22.508;2022-10-15T01:47:03;98823.22;;;10.04;100.00
37634;BME280;32048;49.902;22.508;2022-10-15T01:49:37;98823.16;;;10.06;100.00
37634;BME280;32048;49.902;22.508;2022-10-15T01:52:09;98830.91;;;10.09;100.00
37634;BME280;32048;49.902;22.508;2022-10-15T01:54:39;98818.59;;;10.09;100.00
37634;BME280;32048;49.902;22.508;2022-10-15T01:57:06;98815.19;;;10.07;100.00
37634;BME280;32048;49.902;22.508;2022-10-15T01:59:35;98818.72;;;10.06;100.00
37634;BME280;32048;49.902;22.508;2022-10-15T02:02:02;98818.03;;;10.03;100.00
37634;BME280;32048;49.902;22.508;2022-10-15T02:04:30;98813.00;;;9.98;100.00
37634;BME280;32048;49.902;22.508;2022-10-15T02:15:18;98804.03;;;9.83;100.00
37634;BME280;32048;49.902;22.508;2022-10-15T02:20:33;98800.13;;;9.73;100.00
37634;BME280;32048;49.902;22.508;2022-10-15T02:23:17;98793.22;;;9.70;100.00
37634;BME280;32048;49.902;22.508;2022-10-15T02:25:47;98794.16;;;9.69;100.00
37634;BME280;32048;49.902;22.508;2022-10-15T02:28:15;98799.66;;;9.65;100.00
37634;BME280;32048;49.902;22.508;2022-10-15T02:30:46;98797.78;;;9.67;100.00
37634;BME280;32048;49.902;22.508;2022-10-15T02:33:15;98794.09;;;9.71;100.00
37634;BME280;32048;49.902;22.508;2022-10-15T02:35:43;98799.25;;;9.72;100.00
37634;BME280;32048;49.902;22.508;2022-10-15T02:38:14;98795.00;;;9.70;100.00
37634;BME280;32048;49.902;22.508;2022-10-15T02:40:44;98795.78;;;9.72;100.00
37634;BME280;32048;49.902;22.508;2022-10-15T02:43:13;98796.50;;;9.75;100.00
37634;BME280;32048;49.902;22.508;2022-10-15T02:45:41;98794.50;;;9.81;100.00
37634;BME280;32048;49.902;22.508;2022-10-15T02:48:08;98786.13;;;9.90;100.00
37634;BME280;32048;49.902;22.508;2022-10-15T02:50:34;98787.63;;;9.95;100.00
37634;BME280;32048;49.902;22.508;2022-10-15T02:53:01;98786.53;;;9.99;100.00
37634;BME280;32048;49.902;22.508;2022-10-15T02:55:28;98784.66;;;10.02;100.00
37634;BME280;32048;49.902;22.508;2022-10-15T02:57:55;98788.00;;;10.05;100.00
37634;BME280;32048;49.902;22.508;2022-10-15T03:00:22;98788.00;;;10.05;100.00
37634;BME280;32048;49.902;22.508;2022-10-15T03:02:50;98782.69;;;10.07;100.00
37634;BME280;32048;49.902;22.508;2022-10-15T03:05:16;98777.41;;;10.07;100.00
37634;BME280;32048;49.902;22.508;2022-10-15T03:07:43;98786.06;;;10.09;100.00
37634;BME280;32048;49.902;22.508;2022-10-15T03:10:10;98787.78;;;10.10;100.00
37634;BME280;32048;49.902;22.508;2022-10-15T03:12:37;98786.78;;;10.12;100.00
37634;BME280;32048;49.902;22.508;2022-10-15T03:15:06;98792.00;;;10.14;100.00
37634;BME280;32048;49.902;22.508;2022-10-15T03:17:33;98792.78;;;10.16;100.00
37634;BME280;32048;49.902;22.508;2022-10-15T03:20:00;98785.53;;;10.19;100.00
37634;BME280;32048;49.902;22.508;2022-10-15T03:22:26;98789.03;;;10.20;100.00
37634;BME280;32048;49.902;22.508;2022-10-15T03:24:53;98781.88;;;10.22;100.00
37634;BME280;32048;49.902;22.508;2022-10-15T03:27:20;98776.47;;;10.25;100.00
37634;BME280;32048;49.902;22.508;2022-10-15T03:29:47;98773.72;;;10.27;100.00
37634;BME280;32048;49.902;22.508;2022-10-15T03:32:14;98776.19;;;10.31;100.00
37634;BME280;32048;49.902;22.508;2022-10-15T03:34:41;98779.59;;;10.33;100.00
37634;BME280;32048;49.902;22.508;2022-10-15T03:37:08;98772.38;;;10.37;100.00
37634;BME280;32048;49.902;22.508;2022-10-15T03:39:35;98770.53;;;10.39;100.00
37634;BME280;32048;49.902;22.508;2022-10-15T03:42:02;98779.91;;;10.45;100.00
37634;BME280;32048;49.902;22.508;2022-10-15T03:44:29;98782.47;;;10.46;100.00
37634;BME280;32048;49.902;22.508;2022-10-15T03:46:56;98776.34;;;10.46;100.00
37634;BME280;32048;49.902;22.508;2022-10-15T03:49:23;98773.00;;;10.42;100.00
37634;BME280;32048;49.902;22.508;2022-10-15T03:51:50;98773.94;;;10.41;100.00
37634;BME280;32048;49.902;22.508;2022-10-15T03:54:17;98773.09;;;10.40;100.00
37634;BME280;32048;49.902;22.508;2022-10-15T03:56:43;98778.28;;;10.42;100.00
37634;BME280;32048;49.902;22.508;2022-10-15T03:59:10;98777.34;;;10.43;100.00
37634;BME280;32048;49.902;22.508;2022-10-15T04:01:37;98778.19;;;10.44;100.00
37634;BME280;32048;49.902;22.508;2022-10-15T04:04:04;98777.44;;;10.42;100.00
37634;BME280;32048;49.902;22.508;2022-10-15T04:06:31;98781.78;;;10.43;100.00
37634;BME280;32048;49.902;22.508;2022-10-15T04:09:00;98780.91;;;10.42;100.00
37634;BME280;32048;49.902;22.508;2022-10-15T04:11:27;98787.28;;;10.38;100.00
37634;BME280;32048;49.902;22.508;2022-10-15T04:13:53;98779.81;;;10.29;100.00
37634;BME280;32048;49.902;22.508;2022-10-15T04:16:20;98781.59;;;10.28;100.00
37634;BME280;32048;49.902;22.508;2022-10-15T04:18:47;98782.75;;;10.23;100.00
37634;BME280;32048;49.902;22.508;2022-10-15T04:21:14;98787.41;;;10.17;100.00
37634;BME280;32048;49.902;22.508;2022-10-15T04:23:41;98776.94;;;10.16;100.00
37634;BME280;32048;49.902;22.508;2022-10-15T04:26:08;98784.97;;;10.13;100.00
37634;BME280;32048;49.902;22.508;2022-10-15T04:28:35;98788.56;;;10.12;100.00
37634;BME280;32048;49.902;22.508;2022-10-15T04:31:02;98785.38;;;10.05;100.00
37634;BME280;32048;49.902;22.508;2022-10-15T04:33:29;98778.31;;;10.06;100.00
37634;BME280;32048;49.902;22.508;2022-10-15T04:36:00;98779.94;;;10.08;100.00
37634;BME280;32048;49.902;22.508;2022-10-15T04:38:27;98775.44;;;10.10;100.00
37634;BME280;32048;49.902;22.508;2022-10-15T04:41:01;98782.34;;;10.13;100.00
37634;BME280;32048;49.902;22.508;2022-10-15T04:43:29;98784.97;;;10.13;100.00
37634;BME280;32048;49.902;22.508;2022-10-15T04:45:57;98784.91;;;10.14;100.00
37634;BME280;32048;49.902;22.508;2022-10-15T04:48:27;98778.63;;;10.17;100.00
37634;BME280;32048;49.902;22.508;2022-10-15T04:50:55;98785.63;;;10.18;100.00
37634;BME280;32048;49.902;22.508;2022-10-15T04:53:22;98780.97;;;10.23;100.00
37634;BME280;32048;49.902;22.508;2022-10-15T04:55:49;98780.81;;;10.26;100.00
37634;BME280;32048;49.902;22.508;2022-10-15T04:58:16;98781.47;;;10.31;100.00
37634;BME280;32048;49.902;22.508;2022-10-15T05:00:42;98781.31;;;10.34;100.00
37634;BME280;32048;49.902;22.508;2022-10-15T05:03:09;98772.22;;;10.40;100.00
37634;BME280;32048;49.902;22.508;2022-10-15T05:05:36;98768.50;;;10.44;100.00
37634;BME280;32048;49.902;22.508;2022-10-15T05:08:03;98770.81;;;10.50;100.00
37634;BME280;32048;49.902;22.508;2022-10-15T05:10:30;98774.19;;;10.54;100.00
37634;BME280;32048;49.902;22.508;2022-10-15T05:12:57;98778.34;;;10.58;100.00
37634;BME280;32048;49.902;22.508;2022-10-15T05:15:25;98784.41;;;10.60;100.00
37634;BME280;32048;49.902;22.508;2022-10-15T05:17:52;98779.66;;;10.67;100.00
37634;BME280;32048;49.902;22.508;2022-10-15T05:20:20;98772.38;;;10.72;100.00
37634;BME280;32048;49.902;22.508;2022-10-15T05:22:46;98781.22;;;10.71;100.00
37634;BME280;32048;49.902;22.508;2022-10-15T05:25:13;98780.19;;;10.73;100.00
37634;BME280;32048;49.902;22.508;2022-10-15T05:27:40;98770.47;;;10.74;100.00
37634;BME280;32048;49.902;22.508;2022-10-15T05:30:08;98767.69;;;10.77;100.00
37634;BME280;32048;49.902;22.508;2022-10-15T05:32:34;98768.47;;;10.79;100.00
37634;BME280;32048;49.902;22.508;2022-10-15T05:35:01;98773.66;;;10.80;100.00
37634;BME280;32048;49.902;22.508;2022-10-15T05:37:28;98772.47;;;10.86;100.00
37634;BME280;32048;49.902;22.508;2022-10-15T05:39:55;98775.81;;;10.90;100.00
37634;BME280;32048;49.902;22.508;2022-10-15T05:42:22;98776.50;;;10.93;100.00
37634;BME280;32048;49.902;22.508;2022-10-15T05:44:49;98779.84;;;10.97;100.00
37634;BME280;32048;49.902;22.508;2022-10-15T05:47:16;98781.28;;;11.02;100.00
37634;BME280;32048;49.902;22.508;2022-10-15T05:49:43;98787.94;;;11.10;100.00
37634;BME280;32048;49.902;22.508;2022-10-15T05:52:10;98788.56;;;11.15;100.00
37634;BME280;32048;49.902;22.508;2022-10-15T05:54:36;98787.63;;;11.16;100.00
37634;BME280;32048;49.902;22.508;2022-10-15T05:57:03;98788.41;;;11.18;100.00
37634;BME280;32048;49.902;22.508;2022-10-15T05:59:30;98796.16;;;11.21;100.00
37634;BME280;32048;49.902;22.508;2022-10-15T06:01:57;98794.13;;;11.26;100.00
37634;BME280;32048;49.902;22.508;2022-10-15T06:04:24;98792.16;;;11.30;100.00
37634;BME280;32048;49.902;22.508;2022-10-15T06:06:51;98791.84;;;11.36;100.00
37634;BME280;32048;49.902;22.508;2022-10-15T06:09:17;98792.44;;;11.41;100.00
37634;BME280;32048;49.902;22.508;2022-10-15T06:11:44;98791.00;;;11.51;100.00
37634;BME280;32048;49.902;22.508;2022-10-15T06:14:12;98791.44;;;11.59;100.00
37634;BME280;32048;49.902;22.508;2022-10-15T06:16:39;98798.66;;;11.72;100.00
37634;BME280;32048;49.902;22.508;2022-10-15T06:19:06;98798.00;;;11.84;100.00
37634;BME280;32048;49.902;22.508;2022-10-15T06:21:33;98799.88;;;11.98;100.00
37634;BME280;32048;49.902;22.508;2022-10-15T06:24:00;98810.72;;;12.09;100.00
37634;BME280;32048;49.902;22.508;2022-10-15T06:26:30;98810.94;;;12.20;100.00
37634;BME280;32048;49.902;22.508;2022-10-15T06:28:57;98812.88;;;12.33;100.00
37634;BME280;32048;49.902;22.508;2022-10-15T06:31:25;98811.41;;;12.43;100.00
37634;BME280;32048;49.902;22.508;2022-10-15T06:33:52;98808.00;;;12.55;100.00
37634;BME280;32048;49.902;22.508;2022-10-15T06:36:19;98818.81;;;12.66;100.00
37634;BME280;32048;49.902;22.508;2022-10-15T06:38:47;98816.38;;;12.78;100.00
37634;BME280;32048;49.902;22.508;2022-10-15T06:41:14;98815.88;;;12.87;100.00
37634;BME280;32048;49.902;22.508;2022-10-15T06:43:42;98820.41;;;12.99;100.00
37634;BME280;32048;49.902;22.508;2022-10-15T06:46:09;98818.16;;;13.07;100.00
37634;BME280;32048;49.902;22.508;2022-10-15T06:48:36;98822.22;;;13.13;100.00
37634;BME280;32048;49.902;22.508;2022-10-15T06:51:03;98816.75;;;13.16;100.00
37634;BME280;32048;49.902;22.508;2022-10-15T06:53:30;98814.81;;;13.18;100.00
37634;BME280;32048;49.902;22.508;2022-10-15T06:55:58;98825.25;;;13.21;100.00
37634;BME280;32048;49.902;22.508;2022-10-15T06:58:25;98823.25;;;13.25;100.00
37634;BME280;32048;49.902;22.508;2022-10-15T07:00:58;98831.72;;;13.31;100.00
37634;BME280;32048;49.902;22.508;2022-10-15T07:03:25;98835.97;;;13.48;100.00
37634;BME280;32048;49.902;22.508;2022-10-15T07:05:52;98837.00;;;13.60;100.00
37634;BME280;32048;49.902;22.508;2022-10-15T07:08:19;98829.88;;;13.75;100.00
37634;BME280;32048;49.902;22.508;2022-10-15T07:10:46;98835.81;;;13.93;99.07
37634;BME280;32048;49.902;22.508;2022-10-15T07:13:13;98835.16;;;14.17;97.79
37634;BME280;32048;49.902;22.508;2022-10-15T07:15:40;98833.75;;;14.38;95.59
37634;BME280;32048;49.902;22.508;2022-10-15T07:18:07;98838.69;;;14.57;93.73
37634;BME280;32048;49.902;22.508;2022-10-15T07:20:34;98839.09;;;14.78;92.62
37634;BME280;32048;49.902;22.508;2022-10-15T07:23:02;98824.75;;;14.93;89.65
37634;BME280;32048;49.902;22.508;2022-10-15T07:25:30;98830.25;;;15.29;90.82
37634;BME280;32048;49.902;22.508;2022-10-15T07:27:57;98831.22;;;16.03;86.51
37634;BME280;32048;49.902;22.508;2022-10-15T07:30:24;98826.72;;;16.87;79.35
37634;BME280;32048;49.902;22.508;2022-10-15T07:32:55;98828.09;;;17.72;77.18
37634;BME280;32048;49.902;22.508;2022-10-15T07:35:23;98826.13;;;18.40;70.91
37634;BME280;32048;49.902;22.508;2022-10-15T07:37:50;98830.66;;;18.60;68.88
37634;BME280;32048;49.902;22.508;2022-10-15T07:40:18;98840.44;;;18.50;69.03
37634;BME280;32048;49.902;22.508;2022-10-15T07:42:53;98834.00;;;18.09;70.81
37634;BME280;32048;49.902;22.508;2022-10-15T07:45:20;98841.09;;;17.54;73.02
37634;BME280;32048;49.902;22.508;2022-10-15T07:47:47;98842.28;;;17.16;75.49
37634;BME280;32048;49.902;22.508;2022-10-15T07:50:14;98847.31;;;16.85;76.78
37634;BME280;32048;49.902;22.508;2022-10-15T07:52:46;98842.69;;;16.52;79.22
37634;BME280;32048;49.902;22.508;2022-10-15T07:55:13;98851.41;;;16.30;79.72
37634;BME280;32048;49.902;22.508;2022-10-15T07:57:40;98842.22;;;16.10;81.68
37634;BME280;32048;49.902;22.508;2022-10-15T08:00:07;98843.25;;;15.96;81.73
37634;BME280;32048;49.902;22.508;2022-10-15T08:02:34;98856.63;;;15.83;82.95
37634;BME280;32048;49.902;22.508;2022-10-15T08:05:01;98858.22;;;15.73;84.76
37634;BME280;32048;49.902;22.508;2022-10-15T08:07:28;98854.81;;;15.71;85.73
37634;BME280;32048;49.902;22.508;2022-10-15T08:09:55;98855.66;;;15.71;85.09
37634;BME280;32048;49.902;22.508;2022-10-15T08:12:22;98851.50;;;15.67;86.00
37634;BME280;32048;49.902;22.508;2022-10-15T08:14:49;98858.84;;;15.64;86.86
37634;BME280;32048;49.902;22.508;2022-10-15T08:17:16;98861.94;;;15.57;87.36
37634;BME280;32048;49.902;22.508;2022-10-15T08:19:43;98862.91;;;15.56;87.60
37634;BME280;32048;49.902;22.508;2022-10-15T08:22:10;98858.22;;;15.60;88.65
37634;BME280;32048;49.902;22.508;2022-10-15T08:24:38;98863.09;;;15.66;87.41
37634;BME280;32048;49.902;22.508;2022-10-15T08:27:05;98858.22;;;15.73;86.41
37634;BME280;32048;49.902;22.508;2022-10-15T08:29:32;98857.78;;;15.79;86.93
37634;BME280;32048;49.902;22.508;2022-10-15T08:31:59;98860.31;;;15.93;86.52
37634;BME280;32048;49.902;22.508;2022-10-15T08:34:25;98861.22;;;16.05;84.60
37634;BME280;32048;49.902;22.508;2022-10-15T08:36:52;98861.50;;;16.13;84.77
37634;BME280;32048;49.902;22.508;2022-10-15T08:39:19;98856.25;;;16.25;83.82
37634;BME280;32048;49.902;22.508;2022-10-15T08:41:47;98858.22;;;16.34;84.88
37634;BME280;32048;49.902;22.508;2022-10-15T08:44:25;98848.81;;;16.41;82.02
37634;BME280;32048;49.902;22.508;2022-10-15T08:47:09;98853.78;;;16.46;81.45
37634;BME280;32048;49.902;22.508;2022-10-15T08:49:48;98861.19;;;16.66;80.34
37634;BME280;32048;49.902;22.508;2022-10-15T08:52:21;98855.94;;;16.89;79.21
37634;BME280;32048;49.902;22.508;2022-10-15T08:54:52;98862.66;;;17.17;78.42
37634;BME280;32048;49.902;22.508;2022-10-15T09:00:11;98861.00;;;17.50;75.77
37634;BME280;32048;49.902;22.508;2022-10-15T09:05:29;98865.72;;;17.80;73.05
37634;BME280;32048;49.902;22.508;2022-10-15T09:08:29;98862.44;;;18.10;73.50
37634;BME280;32048;49.902;22.508;2022-10-15T09:11:01;98872.91;;;18.45;71.42
37634;BME280;32048;49.902;22.508;2022-10-15T09:13:37;98873.78;;;18.67;69.60
37634;BME280;32048;49.902;22.508;2022-10-15T09:16:23;98868.19;;;18.81;66.79
37634;BME280;32048;49.902;22.508;2022-10-15T09:18:52;98861.59;;;19.06;65.01
37634;BME280;32048;49.902;22.508;2022-10-15T09:21:22;98859.78;;;19.38;59.56
37634;BME280;32048;49.902;22.508;2022-10-15T09:23:50;98879.22;;;19.61;59.75
37634;BME280;32048;49.902;22.508;2022-10-15T09:35:11;98875.94;;;19.05;56.28
37634;BME280;32048;49.902;22.508;2022-10-15T09:37:45;98869.75;;;18.84;59.35
37634;BME280;32048;49.902;22.508;2022-10-15T09:43:00;98886.38;;;18.87;58.36
37634;BME280;32048;49.902;22.508;2022-10-15T09:45:29;98873.88;;;18.77;59.84
37634;BME280;32048;49.902;22.508;2022-10-15T09:47:58;98869.41;;;18.77;59.79
37634;BME280;32048;49.902;22.508;2022-10-15T09:50:44;98887.09;;;18.89;56.41
37634;BME280;32048;49.902;22.508;2022-10-15T09:56:24;98883.03;;;18.63;58.57
37634;BME280;32048;49.902;22.508;2022-10-15T09:58:56;98880.66;;;18.48;59.74
37634;BME280;32048;49.902;22.508;2022-10-15T10:01:28;98879.84;;;18.69;63.32
37634;BME280;32048;49.902;22.508;2022-10-15T10:04:18;98880.88;;;19.10;58.14
37634;BME280;32048;49.902;22.508;2022-10-15T10:06:49;98883.28;;;19.55;56.97
37634;BME280;32048;49.902;22.508;2022-10-15T10:09:32;98879.63;;;19.87;54.61
37634;BME280;32048;49.902;22.508;2022-10-15T10:12:07;98874.72;;;20.62;52.76
37634;BME280;32048;49.902;22.508;2022-10-15T10:15:51;98861.72;;;20.86;49.86
37634;BME280;32048;49.902;22.508;2022-10-15T10:17:54;98863.38;;;21.26;49.73
37634;BME280;32048;49.902;22.508;2022-10-15T10:20:28;98864.13;;;21.93;47.05
37634;BME280;32048;49.902;22.508;2022-10-15T10:22:58;98883.84;;;22.12;46.59
37634;BME280;32048;49.902;22.508;2022-10-15T10:27:54;98869.63;;;23.01;44.75
37634;BME280;32048;49.902;22.508;2022-10-15T10:30:22;98858.31;;;23.41;44.21
37634;BME280;32048;49.902;22.508;2022-10-15T10:33:11;98849.97;;;23.87;42.04
37634;BME280;32048;49.902;22.508;2022-10-15T10:35:59;98846.38;;;24.29;40.56
37634;BME280;32048;49.902;22.508;2022-10-15T10:38:36;98870.63;;;24.21;39.38
37634;BME280;32048;49.902;22.508;2022-10-15T10:41:10;98849.72;;;23.72;41.44
37634;BME280;32048;49.902;22.508;2022-10-15T10:43:39;98853.53;;;23.35;41.94
37634;BME280;32048;49.902;22.508;2022-10-15T10:48:44;98855.47;;;22.63;43.12
37634;BME280;32048;49.902;22.508;2022-10-15T10:51:18;98857.78;;;22.12;43.28
37634;BME280;32048;49.902;22.508;2022-10-15T10:53:53;98852.44;;;21.37;45.14
37634;BME280;32048;49.902;22.508;2022-10-15T10:56:27;98849.16;;;20.96;47.13
37634;BME280;32048;49.902;22.508;2022-10-15T10:59:01;98847.28;;;21.07;46.73
37634;BME280;32048;49.902;22.508;2022-10-15T11:01:29;98843.88;;;21.05;48.55
37634;BME280;32048;49.902;22.508;2022-10-15T11:03:56;98867.66;;;21.00;46.70
37634;BME280;32048;49.902;22.508;2022-10-15T11:06:39;98841.13;;;20.58;48.54
37634;BME280;32048;49.902;22.508;2022-10-15T11:09:16;98845.03;;;20.83;47.62
37634;BME280;32048;49.902;22.508;2022-10-15T11:14:52;98832.72;;;21.09;47.26
37634;BME280;32048;49.902;22.508;2022-10-15T11:17:45;98832.28;;;21.14;47.50
37634;BME280;32048;49.902;22.508;2022-10-15T11:20:37;98824.66;;;21.19;47.57
37634;BME280;32048;49.902;22.508;2022-10-15T11:35:47;98796.13;;;21.08;46.22
37634;BME280;32048;49.902;22.508;2022-10-15T11:38:50;98806.31;;;21.52;46.43
37634;BME280;32048;49.902;22.508;2022-10-15T11:49:47;98817.41;;;21.29;44.62
37634;BME280;32048;49.902;22.508;2022-10-15T11:52:50;98802.38;;;20.21;47.09
37634;BME280;32048;49.902;22.508;2022-10-15T11:55:44;98809.25;;;19.54;49.74
37634;BME280;32048;49.902;22.508;2022-10-15T12:01:00;98807.63;;;19.01;51.80
37634;BME280;32048;49.902;22.508;2022-10-15T12:03:30;98802.78;;;18.95;52.76
37634;BME280;32048;49.902;22.508;2022-10-15T12:06:06;98804.84;;;19.13;51.81
37634;BME280;32048;49.902;22.508;2022-10-15T12:08:36;98795.75;;;19.56;50.82
37634;BME280;32048;49.902;22.508;2022-10-15T12:13:57;98810.69;;;20.96;44.05
37634;BME280;32048;49.902;22.508;2022-10-15T12:16:47;98812.19;;;21.28;44.19
37634;BME280;32048;49.902;22.508;2022-10-15T12:19:22;98804.13;;;21.65;43.49
37634;BME280;32048;49.902;22.508;2022-10-15T12:29:50;98794.53;;;22.80;40.11
37634;BME280;32048;49.902;22.508;2022-10-15T12:32:23;98800.59;;;22.82;38.71
37634;BME280;32048;49.902;22.508;2022-10-15T12:34:58;98799.34;;;21.87;40.07
37634;BME280;32048;49.902;22.508;2022-10-15T12:37:28;98799.84;;;21.45;42.43
37634;BME280;32048;49.902;22.508;2022-10-15T12:40:01;98822.84;;;21.57;41.86
37634;BME280;32048;49.902;22.508;2022-10-15T12:42:30;98816.22;;;21.51;42.69
37634;BME280;32048;49.902;22.508;2022-10-15T12:44:59;98833.56;;;21.67;41.70
37634;BME280;32048;49.902;22.508;2022-10-15T12:50:33;98810.97;;;21.03;42.71
37634;BME280;32048;49.902;22.508;2022-10-15T12:55:38;98812.47;;;21.25;43.30
37634;BME280;32048;49.902;22.508;2022-10-15T12:58:31;98805.81;;;21.29;42.86
37634;BME280;32048;49.902;22.508;2022-10-15T13:03:42;98839.34;;;21.05;42.41
37634;BME280;32048;49.902;22.508;2022-10-15T13:08:49;98841.94;;;20.48;44.39
37634;BME280;32048;49.902;22.508;2022-10-15T13:13:48;98809.59;;;20.40;44.83
37634;BME280;32048;49.902;22.508;2022-10-15T13:16:16;98803.81;;;20.25;46.09
37634;BME280;32048;49.902;22.508;2022-10-15T13:18:48;98804.22;;;20.21;46.19
37634;BME280;32048;49.902;22.508;2022-10-15T13:21:16;98807.59;;;20.13;46.50
37634;BME280;32048;49.902;22.508;2022-10-15T13:23:48;98819.31;;;20.02;46.36
37634;BME280;32048;49.902;22.508;2022-10-15T13:26:24;98818.75;;;19.68;48.27
37634;BME280;32048;49.902;22.508;2022-10-15T13:28:56;98808.19;;;19.36;49.46
37634;BME280;32048;49.902;22.508;2022-10-15T13:31:31;98814.25;;;19.07;49.89
37634;BME280;32048;49.902;22.508;2022-10-15T13:36:45;98812.22;;;18.78;50.62
37634;BME280;32048;49.902;22.508;2022-10-15T13:39:38;98812.41;;;18.65;50.61
37634;BME280;32048;49.902;22.508;2022-10-15T13:42:21;98816.50;;;18.69;51.42
37634;BME280;32048;49.902;22.508;2022-10-15T13:47:29;98806.97;;;18.35;52.30
37634;BME280;32048;49.902;22.508;2022-10-15T13:50:29;98810.66;;;18.11;53.20
37634;BME280;32048;49.902;22.508;2022-10-15T13:53:00;98820.63;;;18.09;53.65
37634;BME280;32048;49.902;22.508;2022-10-15T13:55:29;98817.63;;;18.02;54.31
37634;BME280;32048;49.902;22.508;2022-10-15T13:58:05;98803.06;;;17.95;55.09
37634;BME280;32048;49.902;22.508;2022-10-15T14:00:39;98809.13;;;17.97;54.53
37634;BME280;32048;49.902;22.508;2022-10-15T14:05:44;98821.53;;;17.76;54.89
37634;BME280;32048;49.902;22.508;2022-10-15T14:10:48;98817.06;;;17.54;57.44
37634;BME280;32048;49.902;22.508;2022-10-15T14:13:16;98824.47;;;17.50;56.80
37634;BME280;32048;49.902;22.508;2022-10-15T14:15:46;98803.00;;;17.40;57.94
37634;BME280;32048;49.902;22.508;2022-10-15T14:18:16;98803.72;;;17.31;58.57
37634;BME280;32048;49.902;22.508;2022-10-15T14:20:46;98804.47;;;17.22;58.33
37634;BME280;32048;49.902;22.508;2022-10-15T14:23:19;98807.34;;;17.08;58.89
37634;BME280;32048;49.902;22.508;2022-10-15T14:25:56;98813.28;;;17.00;58.88
37634;BME280;32048;49.902;22.508;2022-10-15T14:28:25;98822.72;;;16.93;59.51
37634;BME280;32048;49.902;22.508;2022-10-15T14:30:54;98795.31;;;16.79;60.19
37634;BME280;32048;49.902;22.508;2022-10-15T14:38:48;98799.13;;;16.64;60.74
37634;BME280;32048;49.902;22.508;2022-10-15T14:41:26;98811.09;;;16.58;61.65
37634;BME280;32048;49.902;22.508;2022-10-15T14:44:17;98802.84;;;16.50;62.54
37634;BME280;32048;49.902;22.508;2022-10-15T14:46:47;98804.38;;;16.41;63.29
37634;BME280;32048;49.902;22.508;2022-10-15T14:49:27;98806.50;;;16.36;63.25
37634;BME280;32048;49.902;22.508;2022-10-15T14:52:07;98816.53;;;16.21;64.53
37634;BME280;32048;49.902;22.508;2022-10-15T14:54:43;98807.72;;;16.08;65.52
37634;BME280;32048;49.902;22.508;2022-10-15T14:57:17;98815.53;;;15.98;66.73
37634;BME280;32048;49.902;22.508;2022-10-15T14:59:46;98824.00;;;15.92;67.04
37634;BME280;32048;49.902;22.508;2022-10-15T15:02:14;98820.09;;;15.85;67.36
37634;BME280;32048;49.902;22.508;2022-10-15T15:04:44;98823.19;;;15.79;68.36
37634;BME280;32048;49.902;22.508;2022-10-15T15:07:15;98825.44;;;15.72;68.77